sensor_id;sensor_type;location;lat;lon;timestamp;temperature;humidity
12773;DHT22;6450;48.576;13.460;2022-08-01T00:00:37;22.80;99.90
12773;DHT22;6450;48.576;13.460;2022-08-01T00:03:04;22.80;99.40
12773;DHT22;6450;48.576;13.460;2022-08-01T00:05:31;22.90;99.70
12773;DHT22;6450;48.576;13.460;2022-08-01T00:07:58;22.90;99.90
12773;DHT22;6450;48.576;13.460;2022-08-01T00:10:26;22.90;99.90
12773;DHT22;6450;48.576;13.460;2022-08-01T00:12:53;22.90;99.90
12773;DHT22;6450;48.576;13.460;2022-08-01T00:15:22;22.90;99.90
12773;DHT22;6450;48.576;13.460;2022-08-01T00:17:49;22.90;99.80
12773;DHT22;6450;48.576;13.460;2022-08-01T00:20:16;22.90;99.90
12773;DHT22;6450;48.576;13.460;2022-08-01T00:22:43;22.80;99.90
12773;DHT22;6450;48.576;13.460;2022-08-01T00:25:10;22.90;99.90
12773;DHT22;6450;48.576;13.460;2022-08-01T00:27:37;22.80;99.90
12773;DHT22;6450;48.576;13.460;2022-08-01T00:30:05;22.70;99.90
12773;DHT22;6450;48.576;13.460;2022-08-01T00:32:33;22.70;99.90
12773;DHT22;6450;48.576;13.460;2022-08-01T00:35:00;22.60;99.90
12773;DHT22;6450;48.576;13.460;2022-08-01T00:37:27;22.70;99.90
12773;DHT22;6450;48.576;13.460;2022-08-01T00:39:54;22.60;99.90
12773;DHT22;6450;48.576;13.460;2022-08-01T00:42:21;22.50;99.90
12773;DHT22;6450;48.576;13.460;2022-08-01T00:44:48;22.40;99.90
12773;DHT22;6450;48.576;13.460;2022-08-01T00:47:15;22.30;99.90
12773;DHT22;6450;48.576;13.460;2022-08-01T00:49:44;22.30;99.90
12773;DHT22;6450;48.576;13.460;2022-08-01T00:52:11;22.10;99.90
12773;DHT22;6450;48.576;13.460;2022-08-01T00:54:39;22.00;99.90
12773;DHT22;6450;48.576;13.460;2022-08-01T00:57:06;21.90;99.90
12773;DHT22;6450;48.576;13.460;2022-08-01T00:59:34;21.80;99.90
12773;DHT22;6450;48.576;13.460;2022-08-01T01:02:01;21.80;99.90
12773;DHT22;6450;48.576;13.460;2022-08-01T01:04:28;21.60;99.90
12773;DHT22;6450;48.576;13.460;2022-08-01T01:07:04;21.70;99.90
12773;DHT22;6450;48.576;13.460;2022-08-01T01:09:39;21.70;99.90
12773;DHT22;6450;48.576;13.460;2022-08-01T01:12:15;21.60;99.90
12773;DHT22;6450;48.576;13.460;2022-08-01T01:14:51;21.60;99.90
12773;DHT22;6450;48.576;13.460;2022-08-01T01:17:24;21.60;99.90
12773;DHT22;6450;48.576;13.460;2022-08-01T01:19:54;21.50;99.90
12773;DHT22;6450;48.576;13.460;2022-08-01T01:22:33;21.50;99.90
12773;DHT22;6450;48.576;13.460;2022-08-01T01:25:17;21.40;99.90
12773;DHT22;6450;48.576;13.460;2022-08-01T01:27:54;21.30;99.90
12773;DHT22;6450;48.576;13.460;2022-08-01T01:30:26;21.20;99.90
12773;DHT22;6450;48.576;13.460;2022-08-01T01:32:59;21.30;99.90
12773;DHT22;6450;48.576;13.460;2022-08-01T01:35:29;21.30;99.90
12773;DHT22;6450;48.576;13.460;2022-08-01T01:38:01;21.30;99.90
12773;DHT22;6450;48.576;13.460;2022-08-01T01:40:29;21.20;99.90
12773;DHT22;6450;48.576;13.460;2022-08-01T01:42:57;21.20;99.90
12773;DHT22;6450;48.576;13.460;2022-08-01T01:45:26;21.20;99.90
12773;DHT22;6450;48.576;13.460;2022-08-01T01:47:54;21.30;99.90
12773;DHT22;6450;48.576;13.460;2022-08-01T01:50:24;21.30;99.90
12773;DHT22;6450;48.576;13.460;2022-08-01T01:52:52;21.30;99.90
12773;DHT22;6450;48.576;13.460;2022-08-01T01:55:21;21.60;99.90
12773;DHT22;6450;48.576;13.460;2022-08-01T01:57:50;21.40;99.90
12773;DHT22;6450;48.576;13.460;2022-08-01T02:00:18;21.30;99.90
12773;DHT22;6450;48.576;13.460;2022-08-01T02:02:47;21.30;99.90
12773;DHT22;6450;48.576;13.460;2022-08-01T02:05:15;21.30;99.90
12773;DHT22;6450;48.576;13.460;2022-08-01T02:07:43;21.40;99.90
12773;DHT22;6450;48.576;13.460;2022-08-01T02:10:12;21.40;99.90
12773;DHT22;6450;48.576;13.460;2022-08-01T02:12:41;21.50;99.90
12773;DHT22;6450;48.576;13.460;2022-08-01T02:15:11;21.50;99.90
12773;DHT22;6450;48.576;13.460;2022-08-01T02:17:42;21.50;99.90
12773;DHT22;6450;48.576;13.460;2022-08-01T02:20:12;20.10;99.90
12773;DHT22;6450;48.576;13.460;2022-08-01T02:22:42;21.50;99.90
12773;DHT22;6450;48.576;13.460;2022-08-01T02:25:14;21.40;99.90
12773;DHT22;6450;48.576;13.460;2022-08-01T02:27:50;21.30;99.90
12773;DHT22;6450;48.576;13.460;2022-08-01T02:30:19;21.40;99.90
12773;DHT22;6450;48.576;13.460;2022-08-01T02:32:49;21.40;99.90
12773;DHT22;6450;48.576;13.460;2022-08-01T02:35:24;21.40;99.90
12773;DHT22;6450;48.576;13.460;2022-08-01T02:37:53;21.30;99.90
12773;DHT22;6450;48.576;13.460;2022-08-01T02:40:21;21.40;99.90
12773;DHT22;6450;48.576;13.460;2022-08-01T02:42:50;21.40;99.90
12773;DHT22;6450;48.576;13.460;2022-08-01T02:45:19;21.50;99.90
12773;DHT22;6450;48.576;13.460;2022-08-01T02:47:47;21.40;99.90
12773;DHT22;6450;48.576;13.460;2022-08-01T02:50:16;21.50;99.90
12773;DHT22;6450;48.576;13.460;2022-08-01T02:52:47;21.50;99.90
12773;DHT22;6450;48.576;13.460;2022-08-01T02:55:15;21.50;99.90
12773;DHT22;6450;48.576;13.460;2022-08-01T02:57:44;21.50;99.90
12773;DHT22;6450;48.576;13.460;2022-08-01T03:00:13;21.50;99.90
12773;DHT22;6450;48.576;13.460;2022-08-01T03:02:41;21.60;99.90
12773;DHT22;6450;48.576;13.460;2022-08-01T03:05:11;21.60;99.90
12773;DHT22;6450;48.576;13.460;2022-08-01T03:07:39;21.60;99.90
12773;DHT22;6450;48.576;13.460;2022-08-01T03:10:09;21.60;99.90
12773;DHT22;6450;48.576;13.460;2022-08-01T03:12:38;21.60;99.90
12773;DHT22;6450;48.576;13.460;2022-08-01T03:15:07;21.60;99.90
12773;DHT22;6450;48.576;13.460;2022-08-01T03:17:37;21.60;99.90
12773;DHT22;6450;48.576;13.460;2022-08-01T03:20:07;21.40;99.90
12773;DHT22;6450;48.576;13.460;2022-08-01T03:22:35;21.30;99.90
12773;DHT22;6450;48.576;13.460;2022-08-01T03:25:05;21.20;99.90
12773;DHT22;6450;48.576;13.460;2022-08-01T03:27:35;21.20;99.90
12773;DHT22;6450;48.576;13.460;2022-08-01T03:30:04;21.10;99.90
12773;DHT22;6450;48.576;13.460;2022-08-01T03:32:31;21.10;99.90
12773;DHT22;6450;48.576;13.460;2022-08-01T03:34:58;21.10;99.90
12773;DHT22;6450;48.576;13.460;2022-08-01T03:37:27;21.20;99.90
12773;DHT22;6450;48.576;13.460;2022-08-01T03:39:58;21.20;99.90
12773;DHT22;6450;48.576;13.460;2022-08-01T03:42:32;21.20;99.90
12773;DHT22;6450;48.576;13.460;2022-08-01T03:45:04;21.30;99.90
12773;DHT22;6450;48.576;13.460;2022-08-01T03:47:35;21.30;99.90
12773;DHT22;6450;48.576;13.460;2022-08-01T03:50:04;21.30;99.90
12773;DHT22;6450;48.576;13.460;2022-08-01T03:52:34;21.40;99.90
12773;DHT22;6450;48.576;13.460;2022-08-01T03:55:05;21.30;99.90
12773;DHT22;6450;48.576;13.460;2022-08-01T03:57:33;21.30;99.90
12773;DHT22;6450;48.576;13.460;2022-08-01T04:00:04;21.60;99.90
12773;DHT22;6450;48.576;13.460;2022-08-01T04:02:34;21.40;99.90
12773;DHT22;6450;48.576;13.460;2022-08-01T04:05:02;21.50;99.90
12773;DHT22;6450;48.576;13.460;2022-08-01T04:07:32;21.40;99.90
12773;DHT22;6450;48.576;13.460;2022-08-01T04:10:01;21.50;99.90
12773;DHT22;6450;48.576;13.460;2022-08-01T04:12:28;21.50;99.90
12773;DHT22;6450;48.576;13.460;2022-08-01T04:14:55;21.50;99.90
12773;DHT22;6450;48.576;13.460;2022-08-01T04:17:23;21.50;99.90
12773;DHT22;6450;48.576;13.460;2022-08-01T04:19:51;21.50;99.90
12773;DHT22;6450;48.576;13.460;2022-08-01T04:22:18;21.50;99.90
12773;DHT22;6450;48.576;13.460;2022-08-01T04:24:47;21.70;99.90
12773;DHT22;6450;48.576;13.460;2022-08-01T04:27:21;21.70;99.90
12773;DHT22;6450;48.576;13.460;2022-08-01T04:29:49;21.70;99.90
12773;DHT22;6450;48.576;13.460;2022-08-01T04:32:19;21.70;99.90
12773;DHT22;6450;48.576;13.460;2022-08-01T04:34:49;21.70;99.90
12773;DHT22;6450;48.576;13.460;2022-08-01T04:37:17;21.70;99.90
12773;DHT22;6450;48.576;13.460;2022-08-01T04:39:46;21.80;99.90
12773;DHT22;6450;48.576;13.460;2022-08-01T04:42:15;21.80;99.90
12773;DHT22;6450;48.576;13.460;2022-08-01T04:44:42;22.10;99.90
12773;DHT22;6450;48.576;13.460;2022-08-01T04:47:09;22.10;99.90
12773;DHT22;6450;48.576;13.460;2022-08-01T04:49:37;22.10;99.90
12773;DHT22;6450;48.576;13.460;2022-08-01T04:52:06;21.60;99.90
12773;DHT22;6450;48.576;13.460;2022-08-01T04:54:35;21.70;99.90
12773;DHT22;6450;48.576;13.460;2022-08-01T04:57:04;21.60;99.90
12773;DHT22;6450;48.576;13.460;2022-08-01T04:59:32;21.50;99.90
12773;DHT22;6450;48.576;13.460;2022-08-01T05:02:09;21.50;99.90
12773;DHT22;6450;48.576;13.460;2022-08-01T05:04:37;21.30;99.90
12773;DHT22;6450;48.576;13.460;2022-08-01T05:07:06;21.30;99.90
12773;DHT22;6450;48.576;13.460;2022-08-01T05:09:33;21.30;99.90
12773;DHT22;6450;48.576;13.460;2022-08-01T05:12:05;21.40;99.90
12773;DHT22;6450;48.576;13.460;2022-08-01T05:14:36;21.50;99.90
12773;DHT22;6450;48.576;13.460;2022-08-01T05:17:05;21.60;99.90
12773;DHT22;6450;48.576;13.460;2022-08-01T05:19:33;21.50;99.90
12773;DHT22;6450;48.576;13.460;2022-08-01T05:22:01;21.50;99.90
12773;DHT22;6450;48.576;13.460;2022-08-01T05:24:31;21.40;99.90
12773;DHT22;6450;48.576;13.460;2022-08-01T05:26:59;21.40;99.90
12773;DHT22;6450;48.576;13.460;2022-08-01T05:29:27;21.40;99.90
12773;DHT22;6450;48.576;13.460;2022-08-01T05:31:54;21.40;99.90
12773;DHT22;6450;48.576;13.460;2022-08-01T05:34:22;21.50;99.90
12773;DHT22;6450;48.576;13.460;2022-08-01T05:36:49;21.70;99.90
12773;DHT22;6450;48.576;13.460;2022-08-01T05:39:16;21.60;99.90
12773;DHT22;6450;48.576;13.460;2022-08-01T05:41:45;21.80;99.90
12773;DHT22;6450;48.576;13.460;2022-08-01T05:44:12;21.90;99.90
12773;DHT22;6450;48.576;13.460;2022-08-01T05:46:39;22.20;99.90
12773;DHT22;6450;48.576;13.460;2022-08-01T05:49:06;22.30;99.90
12773;DHT22;6450;48.576;13.460;2022-08-01T05:51:33;22.50;99.90
12773;DHT22;6450;48.576;13.460;2022-08-01T05:56:28;22.70;99.90
12773;DHT22;6450;48.576;13.460;2022-08-01T05:58:56;22.70;99.90
12773;DHT22;6450;48.576;13.460;2022-08-01T06:01:23;22.60;99.90
12773;DHT22;6450;48.576;13.460;2022-08-01T06:03:50;22.50;99.90
12773;DHT22;6450;48.576;13.460;2022-08-01T06:06:18;22.30;99.90
12773;DHT22;6450;48.576;13.460;2022-08-01T06:08:45;22.30;99.90
12773;DHT22;6450;48.576;13.460;2022-08-01T06:11:12;22.10;99.90
12773;DHT22;6450;48.576;13.460;2022-08-01T06:13:39;22.00;99.90
12773;DHT22;6450;48.576;13.460;2022-08-01T06:16:07;22.00;99.90
12773;DHT22;6450;48.576;13.460;2022-08-01T06:18:34;22.00;99.90
12773;DHT22;6450;48.576;13.460;2022-08-01T06:23:29;21.90;99.90
12773;DHT22;6450;48.576;13.460;2022-08-01T06:25:56;21.70;99.90
12773;DHT22;6450;48.576;13.460;2022-08-01T06:28:24;22.10;99.90
12773;DHT22;6450;48.576;13.460;2022-08-01T06:30:51;22.10;99.90
12773;DHT22;6450;48.576;13.460;2022-08-01T06:33:20;22.10;99.90
12773;DHT22;6450;48.576;13.460;2022-08-01T06:35:47;22.10;99.90
12773;DHT22;6450;48.576;13.460;2022-08-01T06:38:14;22.10;99.90
12773;DHT22;6450;48.576;13.460;2022-08-01T06:40:41;22.00;99.90
12773;DHT22;6450;48.576;13.460;2022-08-01T06:43:08;21.90;99.90
12773;DHT22;6450;48.576;13.460;2022-08-01T06:45:37;22.10;99.90
12773;DHT22;6450;48.576;13.460;2022-08-01T06:48:04;22.00;99.90
12773;DHT22;6450;48.576;13.460;2022-08-01T06:50:33;21.90;99.90
12773;DHT22;6450;48.576;13.460;2022-08-01T06:53:02;21.90;99.90
12773;DHT22;6450;48.576;13.460;2022-08-01T06:55:29;21.80;99.90
12773;DHT22;6450;48.576;13.460;2022-08-01T06:57:56;21.90;99.90
12773;DHT22;6450;48.576;13.460;2022-08-01T07:00:24;21.70;99.90
12773;DHT22;6450;48.576;13.460;2022-08-01T07:02:52;21.60;99.90
12773;DHT22;6450;48.576;13.460;2022-08-01T07:05:20;21.30;99.90
12773;DHT22;6450;48.576;13.460;2022-08-01T07:07:49;20.90;99.90
12773;DHT22;6450;48.576;13.460;2022-08-01T07:10:17;20.60;99.90
12773;DHT22;6450;48.576;13.460;2022-08-01T07:12:44;20.30;99.90
12773;DHT22;6450;48.576;13.460;2022-08-01T07:15:11;20.10;99.90
12773;DHT22;6450;48.576;13.460;2022-08-01T07:17:39;19.90;99.90
12773;DHT22;6450;48.576;13.460;2022-08-01T07:20:08;19.70;99.90
12773;DHT22;6450;48.576;13.460;2022-08-01T07:22:35;19.90;99.90
12773;DHT22;6450;48.576;13.460;2022-08-01T07:25:05;20.00;99.90
12773;DHT22;6450;48.576;13.460;2022-08-01T07:27:33;20.20;99.90
12773;DHT22;6450;48.576;13.460;2022-08-01T07:30:00;20.30;99.90
12773;DHT22;6450;48.576;13.460;2022-08-01T07:32:27;20.40;99.90
12773;DHT22;6450;48.576;13.460;2022-08-01T07:34:55;20.40;99.90
12773;DHT22;6450;48.576;13.460;2022-08-01T07:37:22;20.40;99.90
12773;DHT22;6450;48.576;13.460;2022-08-01T07:39:49;20.40;99.90
12773;DHT22;6450;48.576;13.460;2022-08-01T07:42:18;20.60;99.90
12773;DHT22;6450;48.576;13.460;2022-08-01T07:44:45;20.70;99.90
12773;DHT22;6450;48.576;13.460;2022-08-01T07:47:12;21.00;99.90
12773;DHT22;6450;48.576;13.460;2022-08-01T07:49:39;21.10;99.90
12773;DHT22;6450;48.576;13.460;2022-08-01T07:52:06;21.20;99.90
12773;DHT22;6450;48.576;13.460;2022-08-01T07:54:35;21.40;99.90
12773;DHT22;6450;48.576;13.460;2022-08-01T07:57:02;21.80;99.90
12773;DHT22;6450;48.576;13.460;2022-08-01T07:59:31;22.10;99.90
12773;DHT22;6450;48.576;13.460;2022-08-01T08:01:58;22.60;99.90
12773;DHT22;6450;48.576;13.460;2022-08-01T08:04:25;23.10;99.90
12773;DHT22;6450;48.576;13.460;2022-08-01T08:06:52;23.50;99.90
12773;DHT22;6450;48.576;13.460;2022-08-01T08:09:20;23.70;99.90
12773;DHT22;6450;48.576;13.460;2022-08-01T08:11:47;23.90;99.90
12773;DHT22;6450;48.576;13.460;2022-08-01T08:14:14;23.80;99.90
12773;DHT22;6450;48.576;13.460;2022-08-01T08:16:42;23.90;99.90
12773;DHT22;6450;48.576;13.460;2022-08-01T08:19:09;23.80;99.90
12773;DHT22;6450;48.576;13.460;2022-08-01T08:21:36;23.70;99.90
12773;DHT22;6450;48.576;13.460;2022-08-01T08:24:03;23.70;99.90
12773;DHT22;6450;48.576;13.460;2022-08-01T08:26:46;23.50;99.90
12773;DHT22;6450;48.576;13.460;2022-08-01T08:29:13;23.40;99.90
12773;DHT22;6450;48.576;13.460;2022-08-01T08:31:42;23.50;99.90
12773;DHT22;6450;48.576;13.460;2022-08-01T08:34:09;23.70;99.90
12773;DHT22;6450;48.576;13.460;2022-08-01T08:36:36;23.70;99.90
12773;DHT22;6450;48.576;13.460;2022-08-01T08:39:04;24.50;99.90
12773;DHT22;6450;48.576;13.460;2022-08-01T08:41:31;24.50;99.90
12773;DHT22;6450;48.576;13.460;2022-08-01T08:44:00;24.50;99.90
12773;DHT22;6450;48.576;13.460;2022-08-01T08:46:27;24.20;99.90
12773;DHT22;6450;48.576;13.460;2022-08-01T08:48:57;23.00;99.90
12773;DHT22;6450;48.576;13.460;2022-08-01T08:51:26;23.00;99.90
12773;DHT22;6450;48.576;13.460;2022-08-01T08:53:55;22.90;99.90
12773;DHT22;6450;48.576;13.460;2022-08-01T08:56:24;23.10;99.90
12773;DHT22;6450;48.576;13.460;2022-08-01T08:58:52;23.50;99.90
12773;DHT22;6450;48.576;13.460;2022-08-01T09:01:19;23.80;99.90
12773;DHT22;6450;48.576;13.460;2022-08-01T09:03:46;24.20;99.90
12773;DHT22;6450;48.576;13.460;2022-08-01T09:06:15;24.50;99.90
12773;DHT22;6450;48.576;13.460;2022-08-01T09:08:42;24.50;99.90
12773;DHT22;6450;48.576;13.460;2022-08-01T09:11:09;24.70;99.90
12773;DHT22;6450;48.576;13.460;2022-08-01T09:13:36;24.50;99.90
12773;DHT22;6450;48.576;13.460;2022-08-01T09:16:05;24.30;99.90
12773;DHT22;6450;48.576;13.460;2022-08-01T09:18:34;24.40;99.90
12773;DHT22;6450;48.576;13.460;2022-08-01T09:21:12;24.50;99.90
12773;DHT22;6450;48.576;13.460;2022-08-01T09:23:44;24.60;99.90
12773;DHT22;6450;48.576;13.460;2022-08-01T09:26:12;24.30;99.90
12773;DHT22;6450;48.576;13.460;2022-08-01T09:28:39;24.00;99.90
12773;DHT22;6450;48.576;13.460;2022-08-01T09:31:09;24.20;99.90
12773;DHT22;6450;48.576;13.460;2022-08-01T09:33:50;24.20;99.90
12773;DHT22;6450;48.576;13.460;2022-08-01T09:36:21;24.50;99.90
12773;DHT22;6450;48.576;13.460;2022-08-01T09:38:51;24.20;99.90
12773;DHT22;6450;48.576;13.460;2022-08-01T09:41:28;24.30;99.90
12773;DHT22;6450;48.576;13.460;2022-08-01T09:43:57;24.50;99.90
12773;DHT22;6450;48.576;13.460;2022-08-01T09:46:25;24.70;99.90
12773;DHT22;6450;48.576;13.460;2022-08-01T09:48:56;25.40;99.90
12773;DHT22;6450;48.576;13.460;2022-08-01T09:51:28;25.50;99.90
12773;DHT22;6450;48.576;13.460;2022-08-01T09:53:57;25.30;99.90
12773;DHT22;6450;48.576;13.460;2022-08-01T09:56:25;24.70;99.90
12773;DHT22;6450;48.576;13.460;2022-08-01T09:58:54;24.80;99.90
12773;DHT22;6450;48.576;13.460;2022-08-01T10:01:22;25.10;99.90
12773;DHT22;6450;48.576;13.460;2022-08-01T10:04:08;25.40;99.90
12773;DHT22;6450;48.576;13.460;2022-08-01T10:06:36;25.70;99.90
12773;DHT22;6450;48.576;13.460;2022-08-01T10:09:05;26.00;99.90
12773;DHT22;6450;48.576;13.460;2022-08-01T10:11:33;26.00;99.90
12773;DHT22;6450;48.576;13.460;2022-08-01T10:14:02;26.10;99.90
12773;DHT22;6450;48.576;13.460;2022-08-01T10:16:30;25.90;99.90
12773;DHT22;6450;48.576;13.460;2022-08-01T10:18:59;25.70;99.90
12773;DHT22;6450;48.576;13.460;2022-08-01T10:21:27;25.60;99.90
12773;DHT22;6450;48.576;13.460;2022-08-01T10:23:55;25.70;99.90
12773;DHT22;6450;48.576;13.460;2022-08-01T10:26:27;25.70;99.90
12773;DHT22;6450;48.576;13.460;2022-08-01T10:28:56;25.60;99.90
12773;DHT22;6450;48.576;13.460;2022-08-01T10:31:23;25.60;99.90
12773;DHT22;6450;48.576;13.460;2022-08-01T10:33:51;26.00;99.90
12773;DHT22;6450;48.576;13.460;2022-08-01T10:36:19;26.20;99.90
12773;DHT22;6450;48.576;13.460;2022-08-01T10:38:48;26.10;99.90
12773;DHT22;6450;48.576;13.460;2022-08-01T10:41:17;26.30;99.90
12773;DHT22;6450;48.576;13.460;2022-08-01T10:43:47;26.00;99.90
12773;DHT22;6450;48.576;13.460;2022-08-01T10:46:14;25.90;99.90
12773;DHT22;6450;48.576;13.460;2022-08-01T10:48:47;25.80;99.90
12773;DHT22;6450;48.576;13.460;2022-08-01T10:51:16;25.90;99.90
12773;DHT22;6450;48.576;13.460;2022-08-01T10:53:50;25.70;99.90
12773;DHT22;6450;48.576;13.460;2022-08-01T10:56:18;25.40;99.90
12773;DHT22;6450;48.576;13.460;2022-08-01T10:58:47;25.10;99.90
12773;DHT22;6450;48.576;13.460;2022-08-01T11:01:20;24.90;99.90
12773;DHT22;6450;48.576;13.460;2022-08-01T11:04:03;26.10;99.90
12773;DHT22;6450;48.576;13.460;2022-08-01T11:09:30;24.80;99.90
12773;DHT22;6450;48.576;13.460;2022-08-01T11:12:00;25.00;99.90
12773;DHT22;6450;48.576;13.460;2022-08-01T11:14:31;25.00;99.90
12773;DHT22;6450;48.576;13.460;2022-08-01T11:20:08;25.20;99.90
12773;DHT22;6450;48.576;13.460;2022-08-01T11:26:13;26.40;99.90
12773;DHT22;6450;48.576;13.460;2022-08-01T11:28:43;26.90;99.90
12773;DHT22;6450;48.576;13.460;2022-08-01T11:31:29;27.00;99.90
12773;DHT22;6450;48.576;13.460;2022-08-01T11:33:56;27.30;99.90
12773;DHT22;6450;48.576;13.460;2022-08-01T11:36:23;27.10;99.90
12773;DHT22;6450;48.576;13.460;2022-08-01T11:39:16;26.70;99.90
12773;DHT22;6450;48.576;13.460;2022-08-01T11:41:45;26.30;99.90
12773;DHT22;6450;48.576;13.460;2022-08-01T11:44:17;26.30;99.90
12773;DHT22;6450;48.576;13.460;2022-08-01T11:46:53;26.20;99.90
12773;DHT22;6450;48.576;13.460;2022-08-01T11:49:29;26.00;99.90
12773;DHT22;6450;48.576;13.460;2022-08-01T11:52:00;25.40;99.90
12773;DHT22;6450;48.576;13.460;2022-08-01T11:54:30;25.30;99.90
12773;DHT22;6450;48.576;13.460;2022-08-01T11:56:58;24.30;99.90
12773;DHT22;6450;48.576;13.460;2022-08-01T11:59:25;24.30;99.90
12773;DHT22;6450;48.576;13.460;2022-08-01T12:01:53;23.90;99.90
12773;DHT22;6450;48.576;13.460;2022-08-01T12:04:20;24.20;99.90
12773;DHT22;6450;48.576;13.460;2022-08-01T12:06:47;24.50;99.90
12773;DHT22;6450;48.576;13.460;2022-08-01T12:09:18;24.30;99.90
12773;DHT22;6450;48.576;13.460;2022-08-01T12:11:50;24.80;99.90
12773;DHT22;6450;48.576;13.460;2022-08-01T12:14:20;25.40;99.90
12773;DHT22;6450;48.576;13.460;2022-08-01T12:16:54;26.10;99.90
12773;DHT22;6450;48.576;13.460;2022-08-01T12:19:23;26.20;99.90
12773;DHT22;6450;48.576;13.460;2022-08-01T12:22:10;26.60;99.90
12773;DHT22;6450;48.576;13.460;2022-08-01T12:24:38;26.50;99.90
12773;DHT22;6450;48.576;13.460;2022-08-01T12:27:08;26.40;99.90
12773;DHT22;6450;48.576;13.460;2022-08-01T12:29:38;26.20;99.90
12773;DHT22;6450;48.576;13.460;2022-08-01T12:32:21;25.90;99.90
12773;DHT22;6450;48.576;13.460;2022-08-01T12:34:50;25.70;99.90
12773;DHT22;6450;48.576;13.460;2022-08-01T12:37:17;25.60;99.90
12773;DHT22;6450;48.576;13.460;2022-08-01T12:39:45;25.60;99.90
12773;DHT22;6450;48.576;13.460;2022-08-01T12:42:14;25.70;99.90
12773;DHT22;6450;48.576;13.460;2022-08-01T12:44:43;26.00;99.90
12773;DHT22;6450;48.576;13.460;2022-08-01T12:47:11;26.40;99.90
12773;DHT22;6450;48.576;13.460;2022-08-01T12:49:41;26.80;99.90
12773;DHT22;6450;48.576;13.460;2022-08-01T12:52:09;27.00;99.90
12773;DHT22;6450;48.576;13.460;2022-08-01T12:57:47;26.70;99.90
12773;DHT22;6450;48.576;13.460;2022-08-01T13:00:20;26.30;99.90
12773;DHT22;6450;48.576;13.460;2022-08-01T13:02:48;26.30;99.90
12773;DHT22;6450;48.576;13.460;2022-08-01T13:05:16;26.40;99.90
12773;DHT22;6450;48.576;13.460;2022-08-01T13:07:46;27.10;99.90
12773;DHT22;6450;48.576;13.460;2022-08-01T13:10:14;27.00;99.00
12773;DHT22;6450;48.576;13.460;2022-08-01T13:12:52;27.20;97.20
12773;DHT22;6450;48.576;13.460;2022-08-01T13:15:25;26.80;98.10
12773;DHT22;6450;48.576;13.460;2022-08-01T13:17:53;27.00;97.20
12773;DHT22;6450;48.576;13.460;2022-08-01T13:20:29;27.10;96.90
12773;DHT22;6450;48.576;13.460;2022-08-01T13:23:13;27.10;96.50
12773;DHT22;6450;48.576;13.460;2022-08-01T13:25:48;27.00;96.10
12773;DHT22;6450;48.576;13.460;2022-08-01T13:28:18;27.00;95.70
12773;DHT22;6450;48.576;13.460;2022-08-01T13:30:52;26.80;95.30
12773;DHT22;6450;48.576;13.460;2022-08-01T13:33:19;26.80;95.30
12773;DHT22;6450;48.576;13.460;2022-08-01T13:35:47;26.80;95.20
12773;DHT22;6450;48.576;13.460;2022-08-01T13:38:15;26.80;94.90
12773;DHT22;6450;48.576;13.460;2022-08-01T13:40:42;26.70;93.20
12773;DHT22;6450;48.576;13.460;2022-08-01T13:43:09;26.70;93.30
12773;DHT22;6450;48.576;13.460;2022-08-01T13:45:38;26.80;93.60
12773;DHT22;6450;48.576;13.460;2022-08-01T13:48:05;26.90;93.10
12773;DHT22;6450;48.576;13.460;2022-08-01T13:50:32;27.00;93.20
12773;DHT22;6450;48.576;13.460;2022-08-01T13:52:59;27.00;93.20
12773;DHT22;6450;48.576;13.460;2022-08-01T13:55:26;27.10;92.90
12773;DHT22;6450;48.576;13.460;2022-08-01T13:57:53;27.20;92.50
12773;DHT22;6450;48.576;13.460;2022-08-01T14:00:21;27.30;92.20
12773;DHT22;6450;48.576;13.460;2022-08-01T14:02:49;27.20;92.00
12773;DHT22;6450;48.576;13.460;2022-08-01T14:05:16;27.20;92.10
12773;DHT22;6450;48.576;13.460;2022-08-01T14:07:43;27.30;92.30
12773;DHT22;6450;48.576;13.460;2022-08-01T14:10:10;27.40;92.10
12773;DHT22;6450;48.576;13.460;2022-08-01T14:12:37;27.40;91.60
12773;DHT22;6450;48.576;13.460;2022-08-01T14:15:05;28.20;93.10
12773;DHT22;6450;48.576;13.460;2022-08-01T14:17:32;27.10;91.60
12773;DHT22;6450;48.576;13.460;2022-08-01T14:20:01;27.10;91.70
12773;DHT22;6450;48.576;13.460;2022-08-01T14:22:29;27.10;92.10
12773;DHT22;6450;48.576;13.460;2022-08-01T14:24:57;26.90;92.30
12773;DHT22;6450;48.576;13.460;2022-08-01T14:27:24;26.90;92.40
12773;DHT22;6450;48.576;13.460;2022-08-01T14:29:51;26.90;92.40
12773;DHT22;6450;48.576;13.460;2022-08-01T14:32:18;26.90;92.20
12773;DHT22;6450;48.576;13.460;2022-08-01T14:34:45;27.20;92.10
12773;DHT22;6450;48.576;13.460;2022-08-01T14:37:13;27.40;92.10
12773;DHT22;6450;48.576;13.460;2022-08-01T14:39:40;27.50;90.80
12773;DHT22;6450;48.576;13.460;2022-08-01T14:42:08;27.60;90.60
12773;DHT22;6450;48.576;13.460;2022-08-01T14:44:34;27.70;90.90
12773;DHT22;6450;48.576;13.460;2022-08-01T14:47:01;27.50;90.70
12773;DHT22;6450;48.576;13.460;2022-08-01T14:49:28;27.10;90.00
12773;DHT22;6450;48.576;13.460;2022-08-01T14:51:55;26.50;93.60
12773;DHT22;6450;48.576;13.460;2022-08-01T14:54:24;26.40;91.70
12773;DHT22;6450;48.576;13.460;2022-08-01T14:56:51;26.60;93.40
12773;DHT22;6450;48.576;13.460;2022-08-01T14:59:18;26.50;91.60
12773;DHT22;6450;48.576;13.460;2022-08-01T15:01:46;26.80;91.50
12773;DHT22;6450;48.576;13.460;2022-08-01T15:04:13;27.40;91.00
12773;DHT22;6450;48.576;13.460;2022-08-01T15:06:40;26.90;90.40
12773;DHT22;6450;48.576;13.460;2022-08-01T15:09:07;26.80;90.00
12773;DHT22;6450;48.576;13.460;2022-08-01T15:11:35;26.90;90.90
12773;DHT22;6450;48.576;13.460;2022-08-01T15:14:02;27.00;89.20
12773;DHT22;6450;48.576;13.460;2022-08-01T15:16:47;27.00;90.40
12773;DHT22;6450;48.576;13.460;2022-08-01T15:19:14;26.90;90.30
12773;DHT22;6450;48.576;13.460;2022-08-01T15:21:41;26.80;90.40
12773;DHT22;6450;48.576;13.460;2022-08-01T15:24:08;26.70;90.60
12773;DHT22;6450;48.576;13.460;2022-08-01T15:26:37;26.60;91.10
12773;DHT22;6450;48.576;13.460;2022-08-01T15:29:04;26.80;92.50
12773;DHT22;6450;48.576;13.460;2022-08-01T15:31:31;26.70;90.70
12773;DHT22;6450;48.576;13.460;2022-08-01T15:33:58;26.60;90.60
12773;DHT22;6450;48.576;13.460;2022-08-01T15:36:25;26.80;90.40
12773;DHT22;6450;48.576;13.460;2022-08-01T15:38:52;27.20;88.90
12773;DHT22;6450;48.576;13.460;2022-08-01T15:41:20;27.40;88.70
12773;DHT22;6450;48.576;13.460;2022-08-01T15:43:49;27.30;86.70
12773;DHT22;6450;48.576;13.460;2022-08-01T15:46:16;27.50;87.00
12773;DHT22;6450;48.576;13.460;2022-08-01T15:48:43;27.90;85.50
12773;DHT22;6450;48.576;13.460;2022-08-01T15:51:10;28.00;84.90
12773;DHT22;6450;48.576;13.460;2022-08-01T15:53:37;28.10;84.30
12773;DHT22;6450;48.576;13.460;2022-08-01T15:56:04;28.20;83.90
12773;DHT22;6450;48.576;13.460;2022-08-01T15:58:31;28.50;82.70